createdAt,value
2022-08-23T00:02:23.466Z,97108.84
2022-08-23T00:07:25.782Z,97114.34
2022-08-23T00:12:31.489Z,97113.22
2022-08-23T00:17:34.886Z,97103.25
2022-08-23T00:22:38.209Z,97092.44
2022-08-23T00:27:40.086Z,97101.75
2022-08-23T00:32:42.548Z,97106.56
2022-08-23T00:37:44.262Z,97103.41
2022-08-23T00:43:28.011Z,97115.78
2022-08-23T00:48:30.595Z,97109.88
2022-08-23T00:53:36.514Z,97116.91
2022-08-23T00:58:38.540Z,97111.78
2022-08-23T01:03:43.185Z,97117.06
2022-08-23T01:08:49.792Z,97110.47
2022-08-23T01:13:57.602Z,97115.97
2022-08-23T01:19:01.770Z,97108.66
2022-08-23T01:24:04.782Z,97120.34
2022-08-23T01:29:08.000Z,97120.41
2022-08-23T01:34:12.225Z,97121.59
2022-08-23T01:39:13.962Z,97108.56
2022-08-23T01:44:15.810Z,97121.00
2022-08-23T01:49:18.479Z,97123.69
2022-08-23T01:54:21.156Z,97116.06
2022-08-23T01:59:24.184Z,97118.53
2022-08-23T02:04:28.503Z,97124.13
2022-08-23T02:09:31.785Z,97123.50
2022-08-23T02:14:37.210Z,97126.28
2022-08-23T02:19:44.130Z,97126.28
2022-08-23T02:24:47.241Z,97129.09
2022-08-23T02:29:50.129Z,97121.06
2022-08-23T02:40:14.547Z,97117.25
2022-08-23T02:45:17.312Z,97117.81
2022-08-23T02:50:22.057Z,97122.75
2022-08-23T02:55:24.166Z,97128.09
2022-08-23T03:00:26.714Z,97130.41
2022-08-23T03:05:28.707Z,97134.31
2022-08-23T03:10:31.197Z,97139.25
2022-08-23T03:15:35.770Z,97141.59
2022-08-23T03:20:39.400Z,97148.41
2022-08-23T03:25:41.201Z,97152.19
2022-08-23T03:30:54.011Z,97152.41
2022-08-23T03:36:01.368Z,97147.03
2022-08-23T03:41:04.889Z,97147.09
2022-08-23T03:46:08.038Z,97149.66
2022-08-23T03:51:12.586Z,97165.75
2022-08-23T03:56:33.118Z,97170.25
2022-08-23T04:01:36.499Z,97166.72
2022-08-23T04:06:38.455Z,97178.16
2022-08-23T04:11:40.442Z,97172.16
2022-08-23T04:16:42.141Z,97177.47
2022-08-23T04:21:50.180Z,97181.66
2022-08-23T04:26:52.131Z,97182.97
2022-08-23T04:31:54.266Z,97186.69
2022-08-23T04:36:55.946Z,97189.41
2022-08-23T04:42:16.620Z,97188.38
2022-08-23T04:47:20.376Z,97187.00
2022-08-23T04:52:23.369Z,97182.81
2022-08-23T04:57:25.896Z,97192.16
2022-08-23T05:02:27.867Z,97184.50
2022-08-23T05:07:42.747Z,97193.28
2022-08-23T05:12:47.072Z,97194.34
2022-08-23T05:17:49.037Z,97199.16
2022-08-23T05:22:51.921Z,97204.56
2022-08-23T05:28:20.149Z,97211.66
2022-08-23T05:33:21.906Z,97219.03
2022-08-23T05:38:24.903Z,97214.84
2022-08-23T05:43:28.110Z,97223.53
2022-08-23T05:48:31.870Z,97231.81
2022-08-23T05:53:38.003Z,97239.41
2022-08-23T05:58:40.122Z,97237.25
2022-08-23T06:03:42.288Z,97237.13
2022-08-23T06:08:48.848Z,97237.53
2022-08-23T06:13:59.535Z,97237.31
2022-08-23T06:19:07.191Z,97239.84
2022-08-23T06:24:39.639Z,97244.56
2022-08-23T06:29:50.022Z,97237.16
2022-08-23T06:35:27.793Z,97238.25
2022-08-23T06:40:35.438Z,97248.78
2022-08-23T06:46:12.877Z,97246.81
2022-08-23T06:51:29.071Z,97257.00
2022-08-23T06:56:49.725Z,97254.50
2022-08-23T07:01:58.424Z,97263.56
2022-08-23T07:07:23.441Z,97266.06
2022-08-23T07:12:25.317Z,97267.44
2022-08-23T07:17:27.146Z,97269.59
2022-08-23T07:22:29.155Z,97282.69
2022-08-23T07:27:31.532Z,97270.38
2022-08-23T07:32:38.406Z,97274.69
2022-08-23T07:37:57.431Z,97278.94
2022-08-23T07:43:05.276Z,97287.19
2022-08-23T07:48:09.154Z,97289.28
2022-08-23T07:53:37.401Z,97293.78
2022-08-23T07:58:41.131Z,97285.03
2022-08-23T08:04:03.338Z,97288.16
2022-08-23T08:09:27.991Z,97289.84
2022-08-23T08:14:50.893Z,97299.06
2022-08-23T08:20:16.807Z,97290.53
2022-08-23T08:26:01.261Z,97302.44
2022-08-23T08:31:04.521Z,97298.72
2022-08-23T08:36:07.820Z,97302.16
2022-08-23T08:41:25.483Z,97301.88
2022-08-23T08:46:45.382Z,97301.22
2022-08-23T08:51:53.268Z,97296.53
2022-08-23T08:56:58.057Z,97302.06
2022-08-23T09:02:01.108Z,97299.22
2022-08-23T09:07:32.594Z,97295.78
2022-08-23T09:12:49.744Z,97302.63
2022-08-23T09:17:57.864Z,97304.88
2022-08-23T09:23:17.627Z,97296.41
2022-08-23T09:28:20.733Z,97297.19
2022-08-23T09:33:26.153Z,97298.25
2022-08-23T09:38:29.994Z,97294.72
2022-08-23T09:43:48.317Z,97284.81
2022-08-23T09:48:55.218Z,97285.03
2022-08-23T09:54:20.756Z,97289.88
2022-08-23T09:59:26.852Z,97286.31
2022-08-23T10:04:47.221Z,97272.66
2022-08-23T10:09:49.943Z,97272.78
2022-08-23T10:14:52.155Z,97262.44
2022-08-23T10:20:13.634Z,97273.56
2022-08-23T10:25:31.386Z,97272.41
2022-08-23T10:31:00.004Z,97262.78
2022-08-23T10:36:33.687Z,97263.84
2022-08-23T10:42:01.422Z,97259.78
2022-08-23T10:47:28.100Z,97257.34
2022-08-23T10:52:40.513Z,97250.56
2022-08-23T10:57:46.565Z,97247.41
2022-08-23T11:02:59.881Z,97248.56
2022-08-23T11:08:36.792Z,97241.38
2022-08-23T11:13:52.705Z,97245.59
2022-08-23T11:18:55.514Z,97247.09
2022-08-23T11:24:12.325Z,97233.22
2022-08-23T11:29:23.919Z,97222.47
2022-08-23T11:35:09.254Z,97238.31
2022-08-23T11:40:18.008Z,97229.84
2022-08-23T11:45:24.653Z,97224.91
2022-08-23T11:50:43.437Z,97220.13
2022-08-23T11:56:07.014Z,97216.41
2022-08-23T12:01:12.259Z,97215.09
2022-08-23T12:06:40.425Z,97216.97
2022-08-23T12:11:57.492Z,97209.97
2022-08-23T12:17:25.750Z,97209.81
2022-08-23T12:22:54.135Z,97209.44
2022-08-23T12:28:07.424Z,97215.22
2022-08-23T12:33:40.402Z,97208.97
2022-08-23T12:39:09.026Z,97207.00
2022-08-23T12:44:10.837Z,97195.13
2022-08-23T12:49:32.507Z,97195.16
2022-08-23T12:54:42.584Z,97197.72
2022-08-23T13:00:17.396Z,97193.78
2022-08-23T13:05:31.898Z,97182.13
2022-08-23T13:10:34.736Z,97178.31
2022-08-23T13:15:45.707Z,97181.28
2022-08-23T13:20:47.443Z,97178.75
2022-08-23T13:25:49.110Z,97182.75
2022-08-23T13:31:17.159Z,97172.06
2022-08-23T13:36:21.841Z,97168.00
2022-08-23T13:41:30.953Z,97173.16
2022-08-23T13:46:34.190Z,97168.41
2022-08-23T13:51:45.734Z,97147.00
2022-08-23T13:56:58.895Z,97164.84
2022-08-23T14:02:06.102Z,97164.00
2022-08-23T14:07:09.265Z,97149.72
2022-08-23T14:12:21.823Z,97142.63
2022-08-23T14:17:24.105Z,97150.13
2022-08-23T14:22:25.752Z,97142.16
2022-08-23T14:27:28.035Z,97143.34
2022-08-23T14:32:30.117Z,97138.31
2022-08-23T14:42:54.724Z,97121.94
2022-08-23T14:47:56.429Z,97137.47
2022-08-23T14:52:58.404Z,97134.50
2022-08-23T14:58:00.114Z,97131.59
2022-08-23T15:03:08.903Z,97138.22
2022-08-23T15:08:11.457Z,97135.28
2022-08-23T15:13:19.555Z,97128.50
2022-08-23T15:18:24.245Z,97137.25
2022-08-23T15:23:25.936Z,97132.59
2022-08-23T15:28:27.597Z,97128.00
2022-08-23T15:33:30.767Z,97124.44
2022-08-23T15:38:33.145Z,97120.34
2022-08-23T15:43:36.140Z,97133.00
2022-08-23T15:48:45.077Z,97136.16
2022-08-23T15:53:47.510Z,97131.66
2022-08-23T15:58:49.473Z,97139.22
2022-08-23T16:03:51.900Z,97128.50
2022-08-23T16:08:53.926Z,97136.94
2022-08-23T16:13:55.821Z,97131.28
2022-08-23T16:18:59.676Z,97125.25
2022-08-23T16:24:02.007Z,97132.16
2022-08-23T16:29:07.599Z,97132.13
2022-08-23T16:34:14.090Z,97128.69
2022-08-23T16:39:17.003Z,97132.16
2022-08-23T16:44:18.716Z,97134.84
2022-08-23T16:49:22.093Z,97133.16
2022-08-23T16:54:23.789Z,97134.56
2022-08-23T16:59:25.479Z,97133.72
2022-08-23T17:04:30.473Z,97141.97
2022-08-23T17:09:32.579Z,97142.53
2022-08-23T17:14:34.243Z,97139.19
2022-08-23T17:19:36.380Z,97147.72
2022-08-23T17:24:38.224Z,97148.63
2022-08-23T17:29:41.023Z,97157.78
2022-08-23T17:34:43.113Z,97154.78
2022-08-23T17:39:45.489Z,97169.75
2022-08-23T17:44:47.223Z,97164.38
2022-08-23T17:49:49.445Z,97178.09
2022-08-23T17:54:51.176Z,97185.63
2022-08-23T17:59:53.187Z,97182.25
2022-08-23T18:04:55.005Z,97193.50
2022-08-23T18:09:57.564Z,97203.63
2022-08-23T18:15:03.355Z,97199.53
2022-08-23T18:20:08.043Z,97209.72
2022-08-23T18:25:10.797Z,97215.56
2022-08-23T18:30:12.871Z,97217.84
2022-08-23T18:35:14.969Z,97228.31
2022-08-23T18:40:17.174Z,97237.78
2022-08-23T18:45:19.269Z,97232.69
2022-08-23T18:50:23.504Z,97243.50
2022-08-23T18:55:25.283Z,97256.81
2022-08-23T19:00:27.005Z,97256.72
2022-08-23T19:05:29.425Z,97259.59
2022-08-23T19:10:44.343Z,97268.09
2022-08-23T19:15:46.132Z,97275.53
2022-08-23T19:20:48.587Z,97282.22
2022-08-23T19:25:51.557Z,97284.88
2022-08-23T19:30:53.243Z,97295.06
2022-08-23T19:35:55.425Z,97307.00
2022-08-23T19:41:00.243Z,97301.22
2022-08-23T19:46:08.339Z,97313.94
2022-08-23T19:51:13.081Z,97321.28
2022-08-23T19:56:14.746Z,97323.72
2022-08-23T20:01:16.548Z,97335.31
2022-08-23T20:06:19.019Z,97349.06
2022-08-23T20:11:21.211Z,97349.97
2022-08-23T20:16:23.820Z,97345.63
2022-08-23T20:21:26.135Z,97354.63
2022-08-23T20:26:43.507Z,97354.63
2022-08-23T20:31:53.169Z,97363.50
2022-08-23T20:36:56.302Z,97358.78
2022-08-23T20:41:58.260Z,97364.06
2022-08-23T20:47:03.006Z,97361.66
2022-08-23T20:52:06.191Z,97363.41
2022-08-23T20:57:07.767Z,97357.63
2022-08-23T21:02:09.435Z,97358.84
2022-08-23T21:07:11.162Z,97363.16
2022-08-23T21:12:13.553Z,97360.50
2022-08-23T21:17:15.289Z,97361.91
2022-08-23T21:22:17.053Z,97355.53
2022-08-23T21:27:18.707Z,97358.16
2022-08-23T21:32:20.698Z,97360.75
2022-08-23T21:37:22.522Z,97352.47
2022-08-23T21:42:26.019Z,97354.47
2022-08-23T21:47:28.154Z,97353.22
2022-08-23T21:52:30.056Z,97355.97
2022-08-23T21:57:32.093Z,97357.03
2022-08-23T22:02:33.790Z,97353.50
2022-08-23T22:07:35.855Z,97355.13
2022-08-23T22:12:38.977Z,97361.88
2022-08-23T22:17:40.661Z,97360.75
2022-08-23T22:22:43.507Z,97364.13
2022-08-23T22:27:47.297Z,97361.78
2022-08-23T22:32:49.939Z,97361.41
2022-08-23T22:38:12.399Z,97359.44
2022-08-23T22:43:13.281Z,97354.09
2022-08-23T22:48:14.975Z,97354.31
2022-08-23T22:53:17.930Z,97354.53
2022-08-23T22:58:19.828Z,97356.97
2022-08-23T23:03:21.728Z,97351.75
2022-08-23T23:08:27.187Z,97356.19
2022-08-23T23:13:31.473Z,97356.78
2022-08-23T23:18:33.925Z,97351.25
2022-08-23T23:23:37.242Z,97348.56
2022-08-23T23:28:39.126Z,97344.06
2022-08-23T23:33:40.814Z,97358.19
2022-08-23T23:38:42.718Z,97347.75
2022-08-23T23:43:44.659Z,97350.81
2022-08-23T23:48:48.428Z,97350.16
2022-08-23T23:53:51.491Z,97341.94
2022-08-23T23:58:55.333Z,97348.31
